createdAt,value
2019-01-13T00:00:25.327Z,6.80
2019-01-13T00:01:25.062Z,6.80
2019-01-13T00:02:25.727Z,8.10
2019-01-13T00:03:26.305Z,7.30
2019-01-13T00:04:26.044Z,8.90
2019-01-13T00:05:25.623Z,8.70
2019-01-13T00:06:26.603Z,6.60
2019-01-13T00:07:26.652Z,8.30
2019-01-13T00:08:25.636Z,8.10
2019-01-13T00:09:25.852Z,7.60
2019-01-13T00:10:25.759Z,7.60
2019-01-13T00:11:24.905Z,6.90
2019-01-13T00:12:25.318Z,6.60
2019-01-13T00:13:25.562Z,7.20
2019-01-13T00:14:25.030Z,5.70
2019-01-13T00:15:25.548Z,6.30
2019-01-13T00:16:26.553Z,8.20
2019-01-13T00:17:24.845Z,7.90
2019-01-13T00:18:25.219Z,5.40
2019-01-13T00:19:24.942Z,6.00
2019-01-13T00:20:24.874Z,7.30
2019-01-13T00:21:24.948Z,5.50
2019-01-13T00:22:25.548Z,5.50
2019-01-13T00:23:24.861Z,6.30
2019-01-13T00:24:25.194Z,6.90
2019-01-13T00:25:25.581Z,5.60
2019-01-13T00:26:26.548Z,6.60
2019-01-13T00:27:25.549Z,6.80
2019-01-13T00:28:24.818Z,5.50
2019-01-13T00:29:25.569Z,8.10
2019-01-13T00:30:25.661Z,7.70
2019-01-13T00:31:25.549Z,6.40
2019-01-13T00:32:25.576Z,6.30
2019-01-13T00:33:24.843Z,7.10
2019-01-13T00:34:24.714Z,6.00
2019-01-13T00:35:24.676Z,6.70
2019-01-13T00:36:24.656Z,6.90
2019-01-13T00:37:24.645Z,6.50
2019-01-13T00:38:24.730Z,6.70
2019-01-13T00:39:24.626Z,6.60
2019-01-13T00:40:24.700Z,6.70
2019-01-13T00:41:33.929Z,6.50
2019-01-13T00:42:33.701Z,7.70
2019-01-13T00:43:24.570Z,6.20
2019-01-13T00:44:33.765Z,5.80
2019-01-13T00:45:24.577Z,6.80
2019-01-13T00:46:33.324Z,6.70
2019-01-13T00:48:41.661Z,5.10
2019-01-13T00:50:53.917Z,7.00
2019-01-13T00:51:53.827Z,5.70
2019-01-13T00:53:05.440Z,6.90
2019-01-13T00:53:54.955Z,6.70
2019-01-13T00:54:53.858Z,4.70
2019-01-13T00:55:53.745Z,5.60
2019-01-13T00:56:53.762Z,4.60
2019-01-13T00:57:53.745Z,5.40
2019-01-13T00:58:53.731Z,3.80
2019-01-13T00:59:53.749Z,5.00
2019-01-13T01:00:53.771Z,4.60
2019-01-13T01:01:53.738Z,5.80
2019-01-13T01:02:53.779Z,4.30
2019-01-13T01:03:53.742Z,4.00
2019-01-13T01:04:53.694Z,6.00
2019-01-13T01:05:53.708Z,4.30
2019-01-13T01:06:53.631Z,5.40
2019-01-13T01:07:53.666Z,5.30
2019-01-13T01:08:53.704Z,4.90
2019-01-13T01:09:53.624Z,3.60
2019-01-13T01:10:53.622Z,4.40
2019-01-13T01:11:53.733Z,6.90
2019-01-13T01:12:53.628Z,5.00
2019-01-13T01:13:53.600Z,6.00
2019-01-13T01:14:53.611Z,8.60
2019-01-13T01:15:53.616Z,4.00
2019-01-13T01:16:53.568Z,5.10
2019-01-13T01:17:53.592Z,3.70
2019-01-13T01:19:05.355Z,5.50
2019-01-13T01:20:02.799Z,3.90
2019-01-13T01:20:53.483Z,4.70
2019-01-13T01:22:01.159Z,3.60
2019-01-13T01:23:02.832Z,5.50
2019-01-13T01:23:53.479Z,5.80
2019-01-13T01:24:53.525Z,4.40
2019-01-13T01:25:53.544Z,4.10
2019-01-13T01:26:53.657Z,4.40
2019-01-13T01:27:53.443Z,4.70
2019-01-13T01:28:53.431Z,5.40
2019-01-13T01:29:53.422Z,4.20
2019-01-13T01:30:53.395Z,3.80
2019-01-13T01:31:53.391Z,4.80
2019-01-13T01:32:53.548Z,3.90
2019-01-13T01:33:53.365Z,5.40
2019-01-13T01:34:53.373Z,4.90
2019-01-13T01:35:53.324Z,4.00
2019-01-13T01:36:54.243Z,3.80
2019-01-13T01:37:53.441Z,5.10
2019-01-13T01:38:53.298Z,3.50
2019-01-13T01:39:53.524Z,5.10
2019-01-13T01:40:53.320Z,4.00
2019-01-13T01:41:53.423Z,3.90
2019-01-13T01:42:54.143Z,4.70
2019-01-13T01:43:53.319Z,3.10
2019-01-13T01:44:53.275Z,4.70
2019-01-13T01:45:53.276Z,4.30
2019-01-13T01:46:53.255Z,4.20
2019-01-13T01:47:53.240Z,4.10
2019-01-13T01:48:53.294Z,4.80
2019-01-13T01:49:53.214Z,3.60
2019-01-13T01:50:53.196Z,3.80
2019-01-13T01:51:53.289Z,3.00
2019-01-13T01:52:53.162Z,4.10
2019-01-13T01:53:53.231Z,2.50
2019-01-13T01:54:53.206Z,4.30
2019-01-13T01:55:53.223Z,2.80
2019-01-13T01:56:53.116Z,4.70
2019-01-13T01:57:53.649Z,4.00
2019-01-13T01:58:53.140Z,4.70
2019-01-13T01:59:53.134Z,4.10
2019-01-13T02:00:53.058Z,4.10
2019-01-13T02:01:53.121Z,4.00
2019-01-13T02:02:53.057Z,3.40
2019-01-13T02:03:53.054Z,3.10
2019-01-13T02:04:53.235Z,4.20
2019-01-13T02:05:53.055Z,3.30
2019-01-13T02:06:53.000Z,3.30
2019-01-13T02:07:53.003Z,4.00
2019-01-13T02:08:53.006Z,4.20
2019-01-13T02:09:53.015Z,3.60
2019-01-13T02:10:53.037Z,4.60
2019-01-13T02:11:52.961Z,4.20
2019-01-13T02:12:52.998Z,3.30
2019-01-13T02:13:52.990Z,4.20
2019-01-13T02:14:52.925Z,4.90
2019-01-13T02:15:52.968Z,3.50
2019-01-13T02:16:53.124Z,4.50
2019-01-13T02:17:53.016Z,4.00
2019-01-13T02:18:53.139Z,5.50
2019-01-13T02:19:52.909Z,2.90
2019-01-13T02:20:52.914Z,3.70
2019-01-13T02:21:52.952Z,3.80
2019-01-13T02:22:52.941Z,5.20
2019-01-13T02:23:53.554Z,5.40
2019-01-13T02:24:53.649Z,3.10
2019-01-13T02:25:52.984Z,3.50
2019-01-13T02:26:52.926Z,3.80
2019-01-13T02:27:52.831Z,3.00
2019-01-13T02:28:52.786Z,3.50
2019-01-13T02:29:52.811Z,3.80
2019-01-13T02:30:53.053Z,3.90
2019-01-13T02:31:52.806Z,3.90
2019-01-13T02:32:52.920Z,4.20
2019-01-13T02:33:52.844Z,4.60
2019-01-13T02:34:52.722Z,5.00
2019-01-13T02:35:52.856Z,3.40
2019-01-13T02:36:52.692Z,3.90
2019-01-13T02:37:52.699Z,4.80
2019-01-13T02:38:52.767Z,4.10
2019-01-13T02:39:52.924Z,4.90
2019-01-13T02:40:52.654Z,4.20
2019-01-13T02:42:02.863Z,3.50
2019-01-13T02:43:00.957Z,4.00
2019-01-13T02:45:04.613Z,5.20
2019-01-13T02:46:03.778Z,5.20
2019-01-13T02:47:03.870Z,4.30
2019-01-13T02:48:03.790Z,5.20
2019-01-13T02:49:03.718Z,5.90
2019-01-13T02:50:03.695Z,3.40
2019-01-13T02:51:03.709Z,3.90
2019-01-13T02:52:03.686Z,5.20
2019-01-13T02:53:03.688Z,3.60
2019-01-13T02:54:03.627Z,4.00
2019-01-13T02:55:03.625Z,3.80
2019-01-13T02:56:03.658Z,3.10
2019-01-13T02:57:03.628Z,3.60
2019-01-13T02:58:03.609Z,5.30
2019-01-13T02:59:03.768Z,3.60
2019-01-13T03:00:03.609Z,3.60
2019-01-13T03:01:03.628Z,3.20
2019-01-13T03:02:03.569Z,3.80
2019-01-13T03:03:03.581Z,5.60
2019-01-13T03:04:03.631Z,3.30
2019-01-13T03:05:03.545Z,3.50
2019-01-13T03:06:03.513Z,3.40
2019-01-13T03:07:03.542Z,3.40
2019-01-13T03:08:03.560Z,4.00
2019-01-13T03:09:03.482Z,4.30
2019-01-13T03:10:12.702Z,3.50
2019-01-13T03:11:03.531Z,4.50
2019-01-13T03:12:03.468Z,4.10
2019-01-13T03:13:03.713Z,4.70
2019-01-13T03:14:04.016Z,6.90
2019-01-13T03:15:03.470Z,4.10
2019-01-13T03:16:03.421Z,3.80
2019-01-13T03:17:03.478Z,5.10
2019-01-13T03:18:03.404Z,4.60
2019-01-13T03:19:03.438Z,6.70
2019-01-13T03:20:03.423Z,5.70
2019-01-13T03:21:03.442Z,5.50
2019-01-13T03:22:03.347Z,5.70
2019-01-13T03:23:03.395Z,5.70
2019-01-13T03:24:03.352Z,5.90
2019-01-13T03:25:03.385Z,6.10
2019-01-13T03:26:03.350Z,5.50
2019-01-13T03:27:03.357Z,5.20
2019-01-13T03:28:03.345Z,5.50
2019-01-13T03:29:03.317Z,5.80
2019-01-13T03:30:03.301Z,5.00
2019-01-13T03:31:12.248Z,4.40
2019-01-13T03:32:04.245Z,5.90
2019-01-13T03:33:03.211Z,4.60
2019-01-13T03:34:03.273Z,5.90
2019-01-13T03:35:03.240Z,5.50
2019-01-13T03:36:03.193Z,5.70
2019-01-13T03:37:03.224Z,5.30
2019-01-13T03:38:03.226Z,5.00
2019-01-13T03:39:03.217Z,5.60
2019-01-13T03:40:03.205Z,4.90
2019-01-13T03:41:03.173Z,5.70
2019-01-13T03:42:03.153Z,5.30
2019-01-13T03:43:03.282Z,6.10
2019-01-13T03:44:03.190Z,6.30
2019-01-13T03:45:03.120Z,7.60
2019-01-13T03:46:12.661Z,6.20
2019-01-13T03:47:12.299Z,7.50
2019-01-13T03:48:12.204Z,5.70
2019-01-13T03:49:11.776Z,6.20
2019-01-13T03:50:12.853Z,6.50
2019-01-13T03:51:13.296Z,6.60
2019-01-13T03:53:21.140Z,9.60
2019-01-13T03:54:21.213Z,9.80
2019-01-13T03:55:21.148Z,7.80
2019-01-13T03:56:21.148Z,6.70
2019-01-13T03:57:21.113Z,7.70
2019-01-13T03:58:21.093Z,7.70
2019-01-13T03:59:21.080Z,5.60
2019-01-13T04:00:21.052Z,8.40
2019-01-13T04:01:21.091Z,8.30
2019-01-13T04:02:21.066Z,6.80
2019-01-13T04:03:21.021Z,7.60
2019-01-13T04:04:21.099Z,7.70
2019-01-13T04:05:21.017Z,9.30
2019-01-13T04:06:21.077Z,8.10
2019-01-13T04:07:21.047Z,6.50
2019-01-13T04:08:20.976Z,7.90
2019-01-13T04:09:30.662Z,8.40
2019-01-13T04:10:20.953Z,7.40
2019-01-13T04:11:20.995Z,7.10
2019-01-13T04:12:21.003Z,6.70
2019-01-13T04:13:22.384Z,8.20
2019-01-13T04:14:20.901Z,6.20
2019-01-13T04:15:20.906Z,7.50
2019-01-13T04:16:20.896Z,8.50
2019-01-13T04:17:20.879Z,7.30
2019-01-13T04:18:20.966Z,8.40
2019-01-13T04:19:20.899Z,6.40
2019-01-13T04:20:20.846Z,7.90
2019-01-13T04:21:20.853Z,6.90
2019-01-13T04:22:20.817Z,7.60
2019-01-13T04:23:21.302Z,7.40
2019-01-13T04:24:20.807Z,6.00
2019-01-13T04:25:20.959Z,8.00
2019-01-13T04:26:21.675Z,5.40
2019-01-13T04:27:20.785Z,7.10
2019-01-13T04:28:21.214Z,7.50
2019-01-13T04:29:20.762Z,8.40
2019-01-13T04:30:20.815Z,6.60
2019-01-13T04:31:26.607Z,6.10
2019-01-13T04:32:21.755Z,6.60
2019-01-13T04:33:20.821Z,7.10
2019-01-13T04:34:20.680Z,6.40
2019-01-13T04:35:20.713Z,6.70
2019-01-13T04:36:20.824Z,7.00
2019-01-13T04:37:20.755Z,6.30
2019-01-13T04:38:20.697Z,5.90
2019-01-13T04:39:20.673Z,6.80
2019-01-13T04:40:20.640Z,7.20
2019-01-13T04:41:20.676Z,6.30
2019-01-13T04:42:20.657Z,5.30
2019-01-13T04:43:20.621Z,7.00
2019-01-13T04:44:20.676Z,7.00
2019-01-13T04:45:20.602Z,8.20
2019-01-13T04:46:20.549Z,6.60
2019-01-13T04:47:20.556Z,8.50
2019-01-13T04:48:20.533Z,7.20
2019-01-13T04:49:20.576Z,5.50
2019-01-13T04:50:20.620Z,5.90
2019-01-13T04:51:20.512Z,6.60
2019-01-13T04:52:20.521Z,6.10
2019-01-13T04:53:20.558Z,6.20
2019-01-13T04:54:20.488Z,7.00
2019-01-13T04:55:20.453Z,6.50
2019-01-13T04:56:20.533Z,6.20
2019-01-13T04:57:20.493Z,6.50
2019-01-13T04:58:20.491Z,9.00
2019-01-13T04:59:20.420Z,9.60
2019-01-13T05:00:20.406Z,6.20
2019-01-13T05:01:20.490Z,6.20
2019-01-13T05:02:20.462Z,7.40
2019-01-13T05:03:20.394Z,8.50
2019-01-13T05:04:20.373Z,6.20
2019-01-13T05:05:20.381Z,8.10
2019-01-13T05:06:21.398Z,7.80
2019-01-13T05:07:20.432Z,9.30
2019-01-13T05:08:20.388Z,7.90
2019-01-13T05:09:20.369Z,8.10
2019-01-13T05:10:20.316Z,5.50
2019-01-13T05:11:20.385Z,8.10
2019-01-13T05:12:20.310Z,7.70
2019-01-13T05:13:20.371Z,7.60
2019-01-13T05:14:20.467Z,7.10
2019-01-13T05:15:20.262Z,8.30
2019-01-13T05:16:20.273Z,7.80
2019-01-13T05:17:20.255Z,6.70
2019-01-13T05:18:20.315Z,6.70
2019-01-13T05:19:20.247Z,8.60
2019-01-13T05:20:20.233Z,6.50
2019-01-13T05:21:20.261Z,8.70
2019-01-13T05:22:20.218Z,8.20
2019-01-13T05:23:20.208Z,8.40
2019-01-13T05:24:20.249Z,7.40
2019-01-13T05:25:20.267Z,7.60
2019-01-13T05:26:20.173Z,7.90
2019-01-13T05:27:20.152Z,7.90
2019-01-13T05:28:20.194Z,8.00
2019-01-13T05:29:20.155Z,7.90
2019-01-13T05:30:20.370Z,7.90
2019-01-13T05:31:20.292Z,7.60
2019-01-13T05:32:20.093Z,8.90
2019-01-13T05:33:20.093Z,8.60
2019-01-13T05:34:20.146Z,10.20
2019-01-13T05:35:20.100Z,9.50
2019-01-13T05:36:20.022Z,8.00
2019-01-13T05:37:20.046Z,8.10
2019-01-13T05:38:20.062Z,8.70
2019-01-13T05:39:19.997Z,6.70
2019-01-13T05:40:19.995Z,6.40
2019-01-13T05:41:19.963Z,7.70
2019-01-13T05:42:19.987Z,7.30
2019-01-13T05:43:19.961Z,7.10
2019-01-13T05:44:19.972Z,8.40
2019-01-13T05:45:19.936Z,8.30
2019-01-13T05:46:19.966Z,8.00
2019-01-13T05:47:19.936Z,6.40
2019-01-13T05:48:19.905Z,8.40
2019-01-13T05:49:19.887Z,8.40
2019-01-13T05:50:19.904Z,7.70
2019-01-13T05:51:29.540Z,7.70
2019-01-13T05:52:30.635Z,8.70
2019-01-13T05:53:20.375Z,9.60
2019-01-13T05:54:20.045Z,9.50
2019-01-13T05:55:20.449Z,6.90
2019-01-13T05:56:19.826Z,7.70
2019-01-13T05:57:19.833Z,7.50
2019-01-13T05:58:19.805Z,7.20
2019-01-13T05:59:19.873Z,7.40
2019-01-13T06:00:19.792Z,8.60
2019-01-13T06:01:19.901Z,8.10
2019-01-13T06:02:19.787Z,7.70
2019-01-13T06:03:19.754Z,8.40
2019-01-13T06:04:20.437Z,7.00
2019-01-13T06:05:19.727Z,7.50
2019-01-13T06:06:19.720Z,6.90
2019-01-13T06:07:19.722Z,7.70
2019-01-13T06:08:19.742Z,7.90
2019-01-13T06:09:19.838Z,6.10
2019-01-13T06:10:19.686Z,7.30
2019-01-13T06:11:19.777Z,8.20
2019-01-13T06:12:25.167Z,6.00
2019-01-13T06:13:20.443Z,6.80
2019-01-13T06:14:19.676Z,7.10
2019-01-13T06:15:19.667Z,6.30
2019-01-13T06:16:19.643Z,7.60
2019-01-13T06:17:19.611Z,7.20
2019-01-13T06:18:19.604Z,5.30
2019-01-13T06:19:19.638Z,7.40
2019-01-13T06:20:19.626Z,7.60
2019-01-13T06:21:19.569Z,5.30
2019-01-13T06:22:19.573Z,6.60
2019-01-13T06:23:19.645Z,8.30
2019-01-13T06:24:19.541Z,6.60
2019-01-13T06:25:19.553Z,5.60
2019-01-13T06:26:19.591Z,5.80
2019-01-13T06:27:19.502Z,8.00
2019-01-13T06:28:19.473Z,7.60
2019-01-13T06:29:19.490Z,7.10
2019-01-13T06:30:19.553Z,8.00
2019-01-13T06:31:19.523Z,8.50
2019-01-13T06:32:19.581Z,9.20
2019-01-13T06:33:20.453Z,7.70
2019-01-13T06:34:19.967Z,7.40
2019-01-13T06:35:19.426Z,7.70
2019-01-13T06:36:19.398Z,7.00
2019-01-13T06:37:20.276Z,8.50
2019-01-13T06:38:19.554Z,7.20
2019-01-13T06:39:19.384Z,9.90
2019-01-13T06:40:19.428Z,7.40
2019-01-13T06:41:19.347Z,6.70
2019-01-13T06:42:19.370Z,7.10
2019-01-13T06:43:19.374Z,8.40
2019-01-13T06:44:19.333Z,7.80
2019-01-13T06:45:19.404Z,9.40
2019-01-13T06:46:19.317Z,8.10
2019-01-13T06:47:19.288Z,10.70
2019-01-13T06:48:19.279Z,8.40
2019-01-13T06:49:19.267Z,8.00
2019-01-13T06:50:19.259Z,10.90
2019-01-13T06:51:19.268Z,7.40
2019-01-13T06:52:19.259Z,7.60
2019-01-13T06:53:19.222Z,10.10
2019-01-13T06:54:19.215Z,9.00
2019-01-13T06:55:19.185Z,7.60
2019-01-13T06:56:19.946Z,7.70
2019-01-13T06:57:19.173Z,7.00
2019-01-13T06:58:19.184Z,11.10
2019-01-13T06:59:19.166Z,9.20
2019-01-13T07:00:19.143Z,9.80
2019-01-13T07:01:19.170Z,7.00
2019-01-13T07:02:19.118Z,7.60
2019-01-13T07:03:19.119Z,10.60
2019-01-13T07:04:19.126Z,8.90
2019-01-13T07:05:19.141Z,7.90
2019-01-13T07:06:19.127Z,9.70
2019-01-13T07:07:19.102Z,8.60
2019-01-13T07:08:19.106Z,8.10
2019-01-13T07:09:19.108Z,9.70
2019-01-13T07:10:19.137Z,7.90
2019-01-13T07:11:19.019Z,7.80
2019-01-13T07:12:19.052Z,7.40
2019-01-13T07:13:19.008Z,10.10
2019-01-13T07:14:19.014Z,8.20
2019-01-13T07:15:19.002Z,8.70
2019-01-13T07:16:19.001Z,6.60
2019-01-13T07:17:18.963Z,8.70
2019-01-13T07:18:18.938Z,9.40
2019-01-13T07:19:18.997Z,8.20
2019-01-13T07:20:18.981Z,8.20
2019-01-13T07:21:19.010Z,8.90
2019-01-13T07:22:18.925Z,6.50
2019-01-13T07:23:18.912Z,8.50
2019-01-13T07:24:18.927Z,7.80
2019-01-13T07:25:18.920Z,8.60
2019-01-13T07:26:18.919Z,6.90
2019-01-13T07:27:18.889Z,7.90
2019-01-13T07:28:18.853Z,7.40
2019-01-13T07:29:18.952Z,6.50
2019-01-13T07:31:36.272Z,8.10
2019-01-13T07:32:36.298Z,10.50
2019-01-13T07:33:36.191Z,7.80
2019-01-13T07:34:36.794Z,8.00
2019-01-13T07:35:45.998Z,8.60
2019-01-13T07:36:36.972Z,8.20
2019-01-13T07:37:36.177Z,7.20
2019-01-13T07:38:36.164Z,7.20
2019-01-13T07:39:48.525Z,7.40
2019-01-13T07:40:45.344Z,8.50
2019-01-13T07:41:36.421Z,8.00
2019-01-13T07:42:36.095Z,8.30
2019-01-13T07:43:36.387Z,6.60
2019-01-13T07:44:36.229Z,6.80
2019-01-13T07:45:36.233Z,6.00
2019-01-13T07:46:36.129Z,8.50
2019-01-13T07:47:36.441Z,9.50
2019-01-13T07:48:36.162Z,6.80
2019-01-13T07:49:36.050Z,6.50
2019-01-13T07:51:56.574Z,7.40
2019-01-13T07:53:06.711Z,9.20
2019-01-13T07:53:56.551Z,8.30
2019-01-13T07:54:56.317Z,9.40
2019-01-13T07:55:56.621Z,9.30
2019-01-13T07:56:56.453Z,7.40
2019-01-13T07:57:56.258Z,7.50
2019-01-13T07:58:56.247Z,7.80
2019-01-13T07:59:56.274Z,8.10
2019-01-13T08:00:56.255Z,7.80
2019-01-13T08:01:56.399Z,5.50
2019-01-13T08:02:56.269Z,7.30
2019-01-13T08:03:56.261Z,6.80
2019-01-13T08:04:56.308Z,8.60
2019-01-13T08:05:56.219Z,7.70
2019-01-13T08:06:56.200Z,7.40
2019-01-13T08:07:56.219Z,5.40
2019-01-13T08:08:56.176Z,8.80
2019-01-13T08:09:56.230Z,7.00
2019-01-13T08:10:56.214Z,9.20
2019-01-13T08:11:56.194Z,6.80
2019-01-13T08:12:56.082Z,6.50
2019-01-13T08:13:56.119Z,5.50
2019-01-13T08:14:56.113Z,7.00
2019-01-13T08:15:56.116Z,6.00
2019-01-13T08:16:56.100Z,7.40
2019-01-13T08:17:56.088Z,9.90
2019-01-13T08:18:56.140Z,7.00
2019-01-13T08:19:56.014Z,7.10
2019-01-13T08:20:56.019Z,8.00
2019-01-13T08:21:56.073Z,7.60
2019-01-13T08:22:56.081Z,6.70
2019-01-13T08:23:55.959Z,5.90
2019-01-13T08:24:56.053Z,5.90
2019-01-13T08:25:55.949Z,6.80
2019-01-13T08:26:56.014Z,6.90
2019-01-13T08:27:55.985Z,6.40
2019-01-13T08:28:55.975Z,6.20
2019-01-13T08:29:55.929Z,6.50
2019-01-13T08:30:55.968Z,7.70
2019-01-13T08:31:58.094Z,7.80
2019-01-13T08:32:57.103Z,7.70
2019-01-13T08:33:57.611Z,6.30
2019-01-13T08:34:58.464Z,6.70
2019-01-13T08:35:55.890Z,6.70
2019-01-13T08:36:55.904Z,6.50
2019-01-13T08:37:55.907Z,8.50
2019-01-13T08:38:55.991Z,8.50
2019-01-13T08:39:55.913Z,8.30
2019-01-13T08:40:55.805Z,8.10
2019-01-13T08:41:56.262Z,6.10
2019-01-13T08:42:56.718Z,6.00
2019-01-13T08:43:55.806Z,5.70
2019-01-13T08:44:55.760Z,7.20
2019-01-13T08:45:55.740Z,6.80
2019-01-13T08:46:55.806Z,6.60
2019-01-13T08:47:55.715Z,6.90
2019-01-13T08:48:55.759Z,6.70
2019-01-13T08:49:55.712Z,6.40
2019-01-13T08:50:55.719Z,6.10
2019-01-13T08:51:55.765Z,6.00
2019-01-13T08:52:55.673Z,6.00
2019-01-13T08:53:56.220Z,7.00
2019-01-13T08:56:13.154Z,7.20
2019-01-13T08:57:14.592Z,6.10
2019-01-13T08:58:13.084Z,5.60
2019-01-13T08:59:13.064Z,5.20
2019-01-13T09:00:13.025Z,5.60
2019-01-13T09:01:13.006Z,6.00
2019-01-13T09:02:13.044Z,6.00
2019-01-13T09:03:13.050Z,6.40
2019-01-13T09:04:13.177Z,5.00
2019-01-13T09:05:12.995Z,7.60
2019-01-13T09:06:13.026Z,6.20
2019-01-13T09:07:12.951Z,7.10
2019-01-13T09:08:12.942Z,7.70
2019-01-13T09:09:12.942Z,7.20
2019-01-13T09:10:12.920Z,6.50
2019-01-13T09:11:12.899Z,7.50
2019-01-13T09:12:12.914Z,6.20
2019-01-13T09:13:12.933Z,5.20
2019-01-13T09:14:12.871Z,7.60
2019-01-13T09:15:12.905Z,7.50
2019-01-13T09:16:13.301Z,7.60
2019-01-13T09:17:12.949Z,6.80
2019-01-13T09:18:12.945Z,7.70
2019-01-13T09:19:12.855Z,5.80
2019-01-13T09:20:13.178Z,7.90
2019-01-13T09:21:14.028Z,7.90
2019-01-13T09:22:12.931Z,6.90
2019-01-13T09:23:12.852Z,6.70
2019-01-13T09:24:13.279Z,7.50
2019-01-13T09:25:12.843Z,8.70
2019-01-13T09:26:12.823Z,8.70
2019-01-13T09:27:13.045Z,8.00
2019-01-13T09:28:12.819Z,7.90
2019-01-13T09:29:14.298Z,6.00
2019-01-13T09:30:13.309Z,7.50
2019-01-13T09:31:13.915Z,8.10
2019-01-13T09:32:13.807Z,6.30
2019-01-13T09:33:12.759Z,10.50
2019-01-13T09:34:13.699Z,7.70
2019-01-13T09:35:12.717Z,8.80
2019-01-13T09:36:12.771Z,7.10
2019-01-13T09:37:12.682Z,7.70
2019-01-13T09:38:12.725Z,7.80
2019-01-13T09:39:12.654Z,7.40
2019-01-13T09:40:12.943Z,8.10
2019-01-13T09:41:12.733Z,8.90
2019-01-13T09:42:14.283Z,7.60
2019-01-13T09:43:12.754Z,8.40
2019-01-13T09:44:12.540Z,8.90
2019-01-13T09:45:12.737Z,10.20
2019-01-13T09:46:12.621Z,9.00
2019-01-13T09:47:12.956Z,8.80
2019-01-13T09:48:12.867Z,8.90
2019-01-13T09:49:12.558Z,9.50
2019-01-13T09:50:14.307Z,7.10
2019-01-13T09:51:12.568Z,12.30
2019-01-13T09:52:12.513Z,9.80
2019-01-13T09:53:12.488Z,9.50
2019-01-13T09:54:12.494Z,7.20
2019-01-13T09:55:12.581Z,10.40
2019-01-13T09:56:12.497Z,7.80
2019-01-13T09:57:12.502Z,6.80
2019-01-13T09:58:12.494Z,8.10
2019-01-13T09:59:12.403Z,8.30
2019-01-13T10:00:12.680Z,7.00
2019-01-13T10:01:12.581Z,9.70
2019-01-13T10:02:12.442Z,8.00
2019-01-13T10:03:12.364Z,11.50
2019-01-13T10:04:12.354Z,13.10
2019-01-13T10:05:12.394Z,11.40
2019-01-13T10:06:12.354Z,8.70
2019-01-13T10:07:12.402Z,9.50
2019-01-13T10:08:12.416Z,8.20
2019-01-13T10:09:12.334Z,9.40
2019-01-13T10:10:12.313Z,7.20
2019-01-13T10:11:12.311Z,9.60
2019-01-13T10:12:12.274Z,10.50
2019-01-13T10:13:12.356Z,11.00
2019-01-13T10:14:12.592Z,10.20
2019-01-13T10:15:13.815Z,8.30
2019-01-13T10:16:12.286Z,8.90
2019-01-13T10:17:12.200Z,9.30
2019-01-13T10:18:12.234Z,8.20
2019-01-13T10:19:12.811Z,8.50
2019-01-13T10:20:12.201Z,8.70
2019-01-13T10:21:12.166Z,10.60
2019-01-13T10:22:12.189Z,9.60
2019-01-13T10:23:12.311Z,8.00
2019-01-13T10:24:12.356Z,7.70
2019-01-13T10:25:12.234Z,10.00
2019-01-13T10:26:12.217Z,9.40
2019-01-13T10:27:12.162Z,9.20
2019-01-13T10:28:12.175Z,9.90
2019-01-13T10:29:12.133Z,9.20
2019-01-13T10:30:12.171Z,9.40
2019-01-13T10:31:12.074Z,9.50
2019-01-13T10:32:12.065Z,8.70
2019-01-13T10:33:12.034Z,8.00
2019-01-13T10:34:12.261Z,9.50
2019-01-13T10:35:12.812Z,8.50
2019-01-13T10:36:12.069Z,9.40
2019-01-13T10:37:12.087Z,9.20
2019-01-13T10:38:22.466Z,8.20
2019-01-13T10:39:12.033Z,8.80
2019-01-13T10:40:11.956Z,8.10
2019-01-13T10:41:12.146Z,7.10
2019-01-13T10:42:12.279Z,7.50
2019-01-13T10:43:11.952Z,7.90
2019-01-13T10:44:11.915Z,8.80
2019-01-13T10:45:12.088Z,8.20
2019-01-13T10:46:11.979Z,9.70
2019-01-13T10:47:11.957Z,10.30
2019-01-13T10:48:12.084Z,10.10
2019-01-13T10:49:11.918Z,9.30
2019-01-13T10:50:11.881Z,10.20
2019-01-13T10:51:12.673Z,10.40
2019-01-13T10:52:11.864Z,10.80
2019-01-13T10:53:11.832Z,8.90
2019-01-13T10:54:11.890Z,8.60
2019-01-13T10:55:11.848Z,10.00
2019-01-13T10:56:11.822Z,9.20
2019-01-13T10:57:11.846Z,9.50
2019-01-13T10:58:11.798Z,9.00
2019-01-13T10:59:11.793Z,8.60
2019-01-13T11:00:11.779Z,9.60
2019-01-13T11:01:11.760Z,7.30
2019-01-13T11:02:11.763Z,7.20
2019-01-13T11:03:11.746Z,8.20
2019-01-13T11:04:11.755Z,8.60
2019-01-13T11:05:12.240Z,8.30
2019-01-13T11:06:11.784Z,7.60
2019-01-13T11:07:11.719Z,7.50
2019-01-13T11:08:11.973Z,6.90
2019-01-13T11:09:11.633Z,7.90
2019-01-13T11:10:11.866Z,8.80
2019-01-13T11:11:11.652Z,9.00
2019-01-13T11:12:11.646Z,9.20
2019-01-13T11:13:11.850Z,6.60
2019-01-13T11:14:11.625Z,8.90
2019-01-13T11:15:11.664Z,7.80
2019-01-13T11:16:11.662Z,7.40
2019-01-13T11:17:11.813Z,7.20
2019-01-13T11:18:11.644Z,7.70
2019-01-13T11:19:11.613Z,7.90
2019-01-13T11:20:11.614Z,6.10
2019-01-13T11:21:11.584Z,5.60
2019-01-13T11:22:11.568Z,6.20
2019-01-13T11:23:11.546Z,7.60
2019-01-13T11:24:11.644Z,7.20
2019-01-13T11:25:11.506Z,6.40
2019-01-13T11:26:13.966Z,5.10
2019-01-13T11:27:11.471Z,4.90
2019-01-13T11:28:11.555Z,6.20
2019-01-13T11:29:11.635Z,6.30
2019-01-13T11:30:11.987Z,5.90
2019-01-13T11:31:11.480Z,7.00
2019-01-13T11:32:11.487Z,5.40
2019-01-13T11:33:11.458Z,5.60
2019-01-13T11:34:11.413Z,5.80
2019-01-13T11:35:11.501Z,5.70
2019-01-13T11:36:11.403Z,4.60
2019-01-13T11:37:11.803Z,5.20
2019-01-13T11:38:11.390Z,5.70
2019-01-13T11:39:11.357Z,4.90
2019-01-13T11:40:11.342Z,5.50
2019-01-13T11:41:11.351Z,5.70
2019-01-13T11:42:11.318Z,4.10
2019-01-13T11:43:11.407Z,4.60
2019-01-13T11:44:11.327Z,3.50
2019-01-13T11:45:11.290Z,3.40
2019-01-13T11:46:11.327Z,3.60
2019-01-13T11:47:11.267Z,3.80
2019-01-13T11:48:11.344Z,2.90
2019-01-13T11:49:11.256Z,3.90
2019-01-13T11:50:11.281Z,4.10
2019-01-13T11:51:11.307Z,4.20
2019-01-13T11:52:11.210Z,5.00
2019-01-13T11:53:11.188Z,4.40
2019-01-13T11:54:11.199Z,4.60
2019-01-13T11:55:11.172Z,3.50
2019-01-13T11:56:11.191Z,4.20
2019-01-13T11:57:21.467Z,2.90
2019-01-13T11:58:11.442Z,4.60
2019-01-13T12:00:30.324Z,3.10
2019-01-13T12:01:30.295Z,4.30
2019-01-13T12:02:32.728Z,3.50
2019-01-13T12:03:41.463Z,4.30
2019-01-13T12:04:31.297Z,3.50
2019-01-13T12:05:29.726Z,3.80
2019-01-13T12:06:29.837Z,3.80
2019-01-13T12:07:29.714Z,2.50
2019-01-13T12:08:29.661Z,2.80
2019-01-13T12:09:29.814Z,3.00
2019-01-13T12:10:29.673Z,2.30
2019-01-13T12:11:29.819Z,4.00
2019-01-13T12:12:29.707Z,2.50
2019-01-13T12:13:29.688Z,3.30
2019-01-13T12:14:29.849Z,3.60
2019-01-13T12:15:29.645Z,3.00
2019-01-13T12:16:29.573Z,2.90
2019-01-13T12:17:29.655Z,2.10
2019-01-13T12:18:29.553Z,3.60
2019-01-13T12:19:29.557Z,4.70
2019-01-13T12:20:30.299Z,2.70
2019-01-13T12:21:29.521Z,5.30
2019-01-13T12:22:29.551Z,3.60
2019-01-13T12:23:29.514Z,2.60
2019-01-13T12:24:29.471Z,2.60
2019-01-13T12:25:30.298Z,3.60
2019-01-13T12:26:29.484Z,4.20
2019-01-13T12:27:29.669Z,2.80
2019-01-13T12:28:29.469Z,3.50
2019-01-13T12:29:30.828Z,3.70
2019-01-13T12:30:29.534Z,2.50
2019-01-13T12:31:29.403Z,2.00
2019-01-13T12:32:29.456Z,3.20
2019-01-13T12:33:29.419Z,2.20
2019-01-13T12:34:29.433Z,2.90
2019-01-13T12:35:29.663Z,3.30
2019-01-13T12:36:29.429Z,2.40
2019-01-13T12:37:29.473Z,2.50
2019-01-13T12:38:29.392Z,4.30
2019-01-13T12:39:29.370Z,3.00
2019-01-13T12:40:31.699Z,2.80
2019-01-13T12:41:29.399Z,2.80
2019-01-13T12:42:29.359Z,2.10
2019-01-13T12:43:29.551Z,2.00
2019-01-13T12:44:29.301Z,2.20
2019-01-13T12:45:29.335Z,2.10
2019-01-13T12:46:29.277Z,1.90
2019-01-13T12:47:29.268Z,1.80
2019-01-13T12:48:29.302Z,2.10
2019-01-13T12:49:30.597Z,2.00
2019-01-13T12:50:29.293Z,1.60
2019-01-13T12:51:29.230Z,1.80
2019-01-13T12:52:29.243Z,1.70
2019-01-13T12:53:29.315Z,2.10
2019-01-13T12:54:29.170Z,2.20
2019-01-13T12:55:29.243Z,1.80
2019-01-13T12:56:29.182Z,2.60
2019-01-13T12:57:29.803Z,6.10
2019-01-13T12:58:29.246Z,6.00
2019-01-13T12:59:29.132Z,2.50
2019-01-13T13:00:29.180Z,2.30
2019-01-13T13:01:29.432Z,2.40
2019-01-13T13:02:29.291Z,3.00
2019-01-13T13:03:31.881Z,2.40
2019-01-13T13:04:29.368Z,2.20
2019-01-13T13:05:29.237Z,2.00
2019-01-13T13:06:29.207Z,3.00
2019-01-13T13:07:29.997Z,2.60
2019-01-13T13:08:29.431Z,3.00
2019-01-13T13:09:29.054Z,3.80
2019-01-13T13:10:29.020Z,3.10
2019-01-13T13:11:29.052Z,3.10
2019-01-13T13:12:29.039Z,4.10
2019-01-13T13:13:28.997Z,3.60
2019-01-13T13:14:29.446Z,4.00
2019-01-13T13:15:29.055Z,4.10
2019-01-13T13:16:29.058Z,4.00
2019-01-13T13:17:29.078Z,3.80
2019-01-13T13:18:28.960Z,3.70
2019-01-13T13:19:28.984Z,3.30
2019-01-13T13:20:28.924Z,4.10
2019-01-13T13:21:28.880Z,4.00
2019-01-13T13:22:28.923Z,4.40
2019-01-13T13:23:28.909Z,8.60
2019-01-13T13:24:28.846Z,7.30
2019-01-13T13:25:31.948Z,6.80
2019-01-13T13:26:28.823Z,5.40
2019-01-13T13:27:28.837Z,4.50